Tamassee, South Carolina
Current Conditions -  °F | °C
As of 10:54 AM on Friday 31 Oct 2014 (Local Time) from KCEU Reporting Station
Clear Clear  
Wind Chill: 56°   Ceiling: Unl
Heat Index: 56°   Visibility: 10mi
Dew Point: 41°   Wind: 6mph
Humidity: 57%   Direction: 80°E
Pressure: 29.94"   Gusts: NA
Location:  34.88°N, 83.02°W
Report Text: KCEU 311454Z AUTO 08005KT 10SM CLR 13/05 A2994 RMK AO2 SLP137 T01330050 50000
Loading
Personal Weather Stations






























Interactive Weather Map New forecast layout! Learn more

10-Day Weather Forecast

Advertisements
Track Severe Weather on mobile